createdAt,value
2023-03-05T00:01:36.773Z,97452.50
2023-03-05T00:04:05.020Z,97447.78
2023-03-05T00:06:32.391Z,97442.59
2023-03-05T00:08:59.729Z,97441.53
2023-03-05T00:11:27.336Z,97445.75
2023-03-05T00:13:54.753Z,97449.53
2023-03-05T00:16:22.319Z,97453.75
2023-03-05T00:18:51.138Z,97458.25
2023-03-05T00:21:20.129Z,97457.00
2023-03-05T00:23:47.464Z,97457.28
2023-03-05T00:26:14.644Z,97457.31
2023-03-05T00:28:41.992Z,97458.94
2023-03-05T00:31:09.378Z,97458.78
2023-03-05T00:33:36.727Z,97470.88
2023-03-05T00:36:09.783Z,97465.38
2023-03-05T00:38:37.007Z,97466.03
2023-03-05T00:41:04.573Z,97471.34
2023-03-05T00:43:31.852Z,97470.84
2023-03-05T00:45:59.137Z,97467.78
2023-03-05T00:48:26.373Z,97465.09
2023-03-05T00:50:53.672Z,97469.81
2023-03-05T00:53:22.417Z,97465.31
2023-03-05T00:55:49.678Z,97467.34
2023-03-05T00:58:16.896Z,97470.38
2023-03-05T01:00:44.197Z,97471.97
2023-03-05T01:03:11.457Z,97469.00
2023-03-05T01:05:38.836Z,97468.16
2023-03-05T01:08:06.189Z,97464.97
2023-03-05T01:10:34.805Z,97456.25
2023-03-05T01:13:02.050Z,97455.22
2023-03-05T01:15:29.465Z,97458.25
2023-03-05T01:17:56.661Z,97454.13
2023-03-05T01:20:24.083Z,97452.78
2023-03-05T01:22:51.250Z,97455.63
2023-03-05T01:25:18.495Z,97451.34
2023-03-05T01:27:47.119Z,97455.69
2023-03-05T01:30:14.794Z,97445.53
2023-03-05T01:32:42.061Z,97442.31
2023-03-05T01:35:10.852Z,97442.69
2023-03-05T01:37:38.145Z,97441.75
2023-03-05T01:40:06.503Z,97442.31
2023-03-05T01:42:34.266Z,97443.00
2023-03-05T01:45:05.335Z,97440.31
2023-03-05T01:47:32.559Z,97441.13
2023-03-05T01:49:59.770Z,97435.75
2023-03-05T01:52:27.169Z,97434.75
2023-03-05T01:54:56.031Z,97428.03
2023-03-05T01:57:24.437Z,97425.84
2023-03-05T01:59:54.155Z,97425.69
2023-03-05T02:02:22.755Z,97414.69
2023-03-05T02:04:51.208Z,97412.34
2023-03-05T02:07:18.542Z,97415.59
2023-03-05T02:09:45.790Z,97414.78
2023-03-05T02:12:13.063Z,97416.75
2023-03-05T02:14:40.774Z,97405.69
2023-03-05T02:17:08.083Z,97410.69
2023-03-05T02:19:49.013Z,97411.59
2023-03-05T02:22:17.829Z,97405.91
2023-03-05T02:24:45.132Z,97414.06
2023-03-05T02:27:12.642Z,97404.03
2023-03-05T02:29:41.064Z,97406.19
2023-03-05T02:32:08.377Z,97405.47
2023-03-05T02:34:35.776Z,97405.16
2023-03-05T02:37:03.137Z,97404.56
2023-03-05T02:39:31.981Z,97398.72
2023-03-05T02:41:59.293Z,97398.28
2023-03-05T02:44:26.574Z,97400.25
2023-03-05T02:46:53.827Z,97400.53
2023-03-05T02:49:21.121Z,97398.91
2023-03-05T02:51:48.451Z,97405.47
2023-03-05T02:54:15.661Z,97397.09
2023-03-05T02:56:44.388Z,97400.06
2023-03-05T02:59:11.624Z,97396.50
2023-03-05T03:01:38.837Z,97400.97
2023-03-05T03:04:06.147Z,97405.09
2023-03-05T03:06:33.394Z,97396.13
2023-03-05T03:09:00.654Z,97398.00
2023-03-05T03:11:27.887Z,97394.84
2023-03-05T03:13:56.620Z,97398.72
2023-03-05T03:16:23.892Z,97403.03
2023-03-05T03:18:51.151Z,97400.50
2023-03-05T03:21:19.881Z,97399.63
2023-03-05T03:23:47.172Z,97394.47
2023-03-05T03:26:14.413Z,97398.59
2023-03-05T03:28:41.678Z,97401.03
2023-03-05T03:31:10.347Z,97402.66
2023-03-05T03:33:37.641Z,97396.56
2023-03-05T03:36:05.559Z,97393.13
2023-03-05T03:38:32.819Z,97393.91
2023-03-05T03:41:00.061Z,97389.50
2023-03-05T03:43:27.421Z,97391.69
2023-03-05T03:45:54.749Z,97388.97
2023-03-05T03:48:23.459Z,97385.63
2023-03-05T03:50:50.611Z,97382.94
2023-03-05T03:53:17.841Z,97381.69
2023-03-05T03:55:45.068Z,97374.94
2023-03-05T03:58:12.400Z,97376.91
2023-03-05T04:00:39.801Z,97384.38
2023-03-05T04:03:07.016Z,97373.22
2023-03-05T04:05:35.668Z,97381.56
2023-03-05T04:08:02.983Z,97382.69
2023-03-05T04:10:30.236Z,97384.75
2023-03-05T04:12:57.508Z,97380.16
2023-03-05T04:15:24.738Z,97377.28
2023-03-05T04:17:52.008Z,97375.88
2023-03-05T04:20:19.376Z,97371.00
2023-03-05T04:22:48.001Z,97370.44
2023-03-05T04:25:15.314Z,97371.38
2023-03-05T04:27:42.596Z,97367.50
2023-03-05T04:30:11.781Z,97370.44
2023-03-05T04:32:39.156Z,97373.84
2023-03-05T04:35:06.691Z,97377.09
2023-03-05T04:37:33.908Z,97377.78
2023-03-05T04:40:02.515Z,97375.94
2023-03-05T04:42:29.795Z,97369.94
2023-03-05T04:44:56.983Z,97368.03
2023-03-05T04:47:24.263Z,97371.25
2023-03-05T04:49:51.683Z,97373.66
2023-03-05T04:52:18.992Z,97374.19
2023-03-05T04:54:46.269Z,97373.28
2023-03-05T04:57:15.043Z,97372.00
2023-03-05T04:59:42.224Z,97369.69
2023-03-05T05:02:09.455Z,97363.44
2023-03-05T05:04:36.725Z,97370.88
2023-03-05T05:07:04.053Z,97361.28
2023-03-05T05:09:31.349Z,97351.06
2023-03-05T05:11:58.656Z,97354.00
2023-03-05T05:14:27.348Z,97358.28
2023-03-05T05:16:54.635Z,97358.44
2023-03-05T05:19:21.929Z,97362.38
2023-03-05T05:21:49.216Z,97359.81
2023-03-05T05:24:16.475Z,97358.69
2023-03-05T05:26:43.751Z,97357.88
2023-03-05T05:29:10.919Z,97364.59
2023-03-05T05:31:39.637Z,97364.59
2023-03-05T05:34:06.939Z,97365.59
2023-03-05T05:36:34.197Z,97365.16
2023-03-05T05:39:01.477Z,97366.53
2023-03-05T05:41:28.858Z,97360.44
2023-03-05T05:43:56.127Z,97361.44
2023-03-05T05:46:23.554Z,97350.78
2023-03-05T05:48:52.389Z,97354.19
2023-03-05T05:51:21.732Z,97354.06
2023-03-05T05:53:49.042Z,97354.25
2023-03-05T05:56:16.364Z,97353.75
2023-03-05T05:58:44.091Z,97351.66
2023-03-05T06:01:15.463Z,97358.81
2023-03-05T06:03:42.677Z,97353.47
2023-03-05T06:06:12.334Z,97347.25
2023-03-05T06:08:39.633Z,97350.38
2023-03-05T06:11:07.067Z,97356.34
2023-03-05T06:13:34.349Z,97356.00
2023-03-05T06:16:03.411Z,97356.66
2023-03-05T06:18:30.691Z,97351.94
2023-03-05T06:20:58.271Z,97356.16
2023-03-05T06:23:26.988Z,97354.66
2023-03-05T06:25:54.292Z,97353.28
2023-03-05T06:28:21.650Z,97352.31
2023-03-05T06:30:49.039Z,97362.41
2023-03-05T06:33:16.276Z,97360.47
2023-03-05T06:35:43.622Z,97357.97
2023-03-05T06:38:10.863Z,97359.84
2023-03-05T06:40:40.537Z,97354.53
2023-03-05T06:43:07.894Z,97359.00
2023-03-05T06:45:35.189Z,97364.16
2023-03-05T06:48:02.395Z,97357.78
2023-03-05T06:50:29.572Z,97361.97
2023-03-05T06:52:56.778Z,97362.13
2023-03-05T06:55:24.110Z,97364.38
2023-03-05T06:57:52.756Z,97368.59
2023-03-05T07:00:21.021Z,97360.00
2023-03-05T07:02:48.367Z,97354.13
2023-03-05T07:05:15.560Z,97357.47
2023-03-05T07:07:42.763Z,97353.91
2023-03-05T07:10:11.134Z,97354.00
2023-03-05T07:12:38.362Z,97352.44
2023-03-05T07:15:10.268Z,97346.97
2023-03-05T07:17:37.480Z,97353.84
2023-03-05T07:20:05.735Z,97363.66
2023-03-05T07:22:32.932Z,97351.66
2023-03-05T07:25:00.112Z,97359.84
2023-03-05T07:27:27.260Z,97359.47
2023-03-05T07:29:54.584Z,97355.66
2023-03-05T07:32:23.419Z,97352.78
2023-03-05T07:34:50.701Z,97355.78
2023-03-05T07:37:17.911Z,97352.84
2023-03-05T07:39:47.116Z,97350.16
2023-03-05T07:42:14.641Z,97354.63
2023-03-05T07:44:45.442Z,97350.19
2023-03-05T07:47:12.815Z,97354.34
2023-03-05T07:49:59.906Z,97345.31
2023-03-05T07:52:27.194Z,97346.16
2023-03-05T07:54:54.442Z,97349.53
2023-03-05T07:57:21.751Z,97344.63
2023-03-05T07:59:48.999Z,97342.50
2023-03-05T08:02:16.304Z,97334.13
2023-03-05T08:04:43.539Z,97345.13
2023-03-05T08:07:14.682Z,97344.69
2023-03-05T08:09:41.877Z,97338.06
2023-03-05T08:12:09.970Z,97332.78
2023-03-05T08:14:37.219Z,97336.84
2023-03-05T08:17:04.657Z,97342.72
2023-03-05T08:19:32.129Z,97341.78
2023-03-05T08:21:59.500Z,97344.59
2023-03-05T08:24:28.240Z,97334.63
2023-03-05T08:26:55.416Z,97333.91
2023-03-05T08:29:25.805Z,97335.56
2023-03-05T08:31:52.979Z,97337.88
2023-03-05T08:34:20.418Z,97337.06
2023-03-05T08:36:47.774Z,97332.03
2023-03-05T08:39:14.986Z,97331.81
2023-03-05T08:41:43.663Z,97330.03
2023-03-05T08:44:10.910Z,97336.22
2023-03-05T08:46:39.298Z,97335.78
2023-03-05T08:49:06.592Z,97331.31
2023-03-05T08:51:34.000Z,97335.41
2023-03-05T08:54:01.264Z,97328.66
2023-03-05T08:56:28.612Z,97334.38
2023-03-05T08:58:57.420Z,97330.53
2023-03-05T09:01:24.788Z,97330.09
2023-03-05T09:03:52.117Z,97324.81
2023-03-05T09:06:22.447Z,97321.91
2023-03-05T09:08:49.653Z,97328.34
2023-03-05T09:11:16.818Z,97315.19
2023-03-05T09:13:44.107Z,97314.06
2023-03-05T09:16:14.224Z,97315.19
2023-03-05T09:18:41.622Z,97312.13
2023-03-05T09:21:09.682Z,97305.22
2023-03-05T09:23:36.978Z,97300.53
2023-03-05T09:26:05.443Z,97312.53
2023-03-05T09:28:32.679Z,97308.84
2023-03-05T09:31:02.564Z,97307.16
2023-03-05T09:33:31.348Z,97310.06
2023-03-05T09:35:58.943Z,97307.63
2023-03-05T09:38:26.281Z,97296.78
2023-03-05T09:40:57.454Z,97299.53
2023-03-05T09:43:30.075Z,97290.78
2023-03-05T09:46:02.619Z,97287.38
2023-03-05T09:48:39.086Z,97290.31
2023-03-05T09:51:07.901Z,97286.03
2023-03-05T09:53:37.265Z,97282.16
2023-03-05T09:56:05.161Z,97275.41
2023-03-05T09:58:35.323Z,97276.22
2023-03-05T10:01:03.582Z,97278.22
2023-03-05T10:03:34.636Z,97274.38
2023-03-05T10:06:06.837Z,97273.78
2023-03-05T10:08:44.580Z,97268.94
2023-03-05T10:11:19.068Z,97269.00
2023-03-05T10:13:46.399Z,97266.06
2023-03-05T10:16:30.066Z,97262.44
2023-03-05T10:19:00.477Z,97255.53
2023-03-05T10:21:28.766Z,97259.47
2023-03-05T10:24:01.171Z,97256.03
2023-03-05T10:26:36.041Z,97246.44
2023-03-05T10:29:10.729Z,97247.22
2023-03-05T10:31:51.682Z,97248.56
2023-03-05T10:35:02.829Z,97240.16
2023-03-05T10:37:48.950Z,97233.69
2023-03-05T10:40:19.143Z,97226.19
2023-03-05T10:42:49.668Z,97223.47
2023-03-05T10:45:18.063Z,97215.50
2023-03-05T10:47:47.851Z,97216.25
2023-03-05T10:50:18.053Z,97217.00
2023-03-05T10:52:45.212Z,97208.84
2023-03-05T10:55:16.260Z,97210.44
2023-03-05T10:57:43.522Z,97201.06
2023-03-05T11:00:18.976Z,97204.09
2023-03-05T11:02:57.593Z,97199.34
2023-03-05T11:05:40.880Z,97192.63
2023-03-05T11:08:28.025Z,97190.56
2023-03-05T11:11:06.594Z,97184.47
2023-03-05T11:13:33.941Z,97186.59
2023-03-05T11:16:01.397Z,97177.78
2023-03-05T11:18:28.804Z,97174.94
2023-03-05T11:21:06.999Z,97171.88
2023-03-05T11:23:34.147Z,97175.09
2023-03-05T11:26:05.236Z,97166.63
2023-03-05T11:28:34.565Z,97163.50
2023-03-05T11:31:05.093Z,97165.94
2023-03-05T11:33:32.632Z,97159.09
2023-03-05T11:36:28.190Z,97155.59
2023-03-05T11:38:57.411Z,97148.81
2023-03-05T11:41:31.498Z,97152.41
2023-03-05T11:43:59.180Z,97142.59
2023-03-05T11:46:26.401Z,97133.81
2023-03-05T11:48:53.857Z,97126.38
2023-03-05T11:51:22.682Z,97123.97
2023-03-05T11:53:54.117Z,97128.63
2023-03-05T11:56:21.978Z,97114.66
2023-03-05T11:58:51.530Z,97111.97
2023-03-05T12:01:19.551Z,97112.63
2023-03-05T12:03:47.086Z,97101.31
2023-03-05T12:06:16.153Z,97101.31
2023-03-05T12:08:45.889Z,97104.34
2023-03-05T12:11:16.282Z,97093.63
2023-03-05T12:13:44.283Z,97092.94
2023-03-05T12:16:18.497Z,97080.91
2023-03-05T12:18:51.133Z,97082.63
2023-03-05T12:21:25.074Z,97076.13
2023-03-05T12:23:55.253Z,97072.66
2023-03-05T12:27:05.564Z,97073.78
2023-03-05T12:29:39.099Z,97067.38
2023-03-05T12:32:09.619Z,97064.84
2023-03-05T12:34:57.872Z,97058.28
2023-03-05T12:38:04.444Z,97050.09
2023-03-05T12:40:37.954Z,97043.84
2023-03-05T12:43:06.680Z,97043.25
2023-03-05T12:45:38.279Z,97038.50
2023-03-05T12:48:42.663Z,97038.81
2023-03-05T12:51:29.589Z,97027.97
2023-03-05T12:53:57.148Z,97032.06
2023-03-05T12:56:26.972Z,97021.78
2023-03-05T12:58:55.858Z,97017.13
2023-03-05T13:01:39.400Z,97019.00
2023-03-05T13:04:07.769Z,97013.28
2023-03-05T13:06:35.481Z,97014.59
2023-03-05T13:09:04.050Z,97014.34
2023-03-05T13:11:31.930Z,97005.44
2023-03-05T13:14:00.990Z,97001.06
2023-03-05T13:16:28.811Z,97000.72
2023-03-05T13:18:57.757Z,96994.69
2023-03-05T13:21:25.660Z,96995.25
2023-03-05T13:23:54.052Z,96983.75
2023-03-05T13:26:21.345Z,96981.06
2023-03-05T13:31:45.842Z,96975.28
2023-03-05T13:34:16.269Z,96977.88
2023-03-05T13:36:46.794Z,96970.75
2023-03-05T13:39:19.166Z,96968.94
2023-03-05T13:42:02.274Z,96975.56
2023-03-05T13:44:29.754Z,96963.88
2023-03-05T13:47:09.046Z,96964.94
2023-03-05T13:49:36.420Z,96963.28
2023-03-05T13:52:04.177Z,96952.16
2023-03-05T13:54:31.511Z,96942.72
2023-03-05T13:56:59.461Z,96939.38
2023-03-05T13:59:27.409Z,96941.00
2023-03-05T14:01:54.738Z,96933.53
2023-03-05T14:04:24.642Z,96938.97
2023-03-05T14:06:54.298Z,96930.34
2023-03-05T14:09:22.717Z,96926.47
2023-03-05T14:11:58.116Z,96920.22
2023-03-05T14:14:25.469Z,96913.97
2023-03-05T14:16:52.904Z,96915.63
2023-03-05T14:19:35.415Z,96915.84
2023-03-05T14:22:02.540Z,96908.88
2023-03-05T14:24:29.761Z,96908.72
2023-03-05T14:26:57.663Z,96902.03
2023-03-05T14:29:25.114Z,96899.81
2023-03-05T14:31:53.483Z,96895.09
2023-03-05T14:34:22.911Z,96887.78
2023-03-05T14:36:54.897Z,96887.69
2023-03-05T14:39:39.167Z,96884.72
2023-03-05T14:42:31.248Z,96869.38
2023-03-05T14:44:59.673Z,96869.53
2023-03-05T14:47:27.124Z,96871.09
2023-03-05T14:49:54.448Z,96868.09
2023-03-05T14:52:23.933Z,96866.00
2023-03-05T14:54:51.223Z,96860.94
2023-03-05T14:57:19.301Z,96857.81
2023-03-05T14:59:46.771Z,96859.53
2023-03-05T15:02:21.165Z,96856.88
2023-03-05T15:04:49.316Z,96848.72
2023-03-05T15:07:18.074Z,96847.38
2023-03-05T15:09:46.679Z,96834.47
2023-03-05T15:12:14.813Z,96839.00
2023-03-05T15:14:42.132Z,96828.41
2023-03-05T15:17:15.060Z,96822.66
2023-03-05T15:19:42.375Z,96823.16
2023-03-05T15:22:10.416Z,96813.91
2023-03-05T15:24:37.592Z,96815.84
2023-03-05T15:27:06.252Z,96810.59
2023-03-05T15:29:33.568Z,96801.78
2023-03-05T15:32:00.737Z,96808.22
2023-03-05T15:34:28.169Z,96806.19
2023-03-05T15:36:55.403Z,96802.09
2023-03-05T15:39:22.522Z,96801.16
2023-03-05T15:41:49.686Z,96792.34
2023-03-05T15:44:18.226Z,96787.38
2023-03-05T15:46:45.595Z,96775.59
2023-03-05T15:49:12.956Z,96775.38
2023-03-05T15:51:40.167Z,96767.44
2023-03-05T15:54:07.246Z,96767.16
2023-03-05T15:56:34.518Z,96769.88
2023-03-05T15:59:01.716Z,96762.16
2023-03-05T16:01:30.561Z,96763.78
2023-03-05T16:03:57.876Z,96762.03
2023-03-05T16:06:25.174Z,96764.13
2023-03-05T16:08:54.609Z,96769.72
2023-03-05T16:11:21.827Z,96766.00
2023-03-05T16:13:49.064Z,96765.75
2023-03-05T16:16:16.339Z,96756.47
2023-03-05T16:18:45.107Z,96756.72
2023-03-05T16:21:12.532Z,96758.81
2023-03-05T16:23:39.721Z,96754.59
2023-03-05T16:26:08.443Z,96754.09
2023-03-05T16:28:35.693Z,96756.47
2023-03-05T16:31:03.070Z,96751.59
2023-03-05T16:33:30.383Z,96753.81
2023-03-05T16:36:29.816Z,96745.25
2023-03-05T16:38:57.714Z,96745.53
2023-03-05T16:41:25.111Z,96751.53
2023-03-05T16:43:52.686Z,96741.91
2023-03-05T16:46:20.077Z,96743.19
2023-03-05T16:48:47.379Z,96742.44
2023-03-05T16:51:16.012Z,96741.63
2023-03-05T16:53:43.247Z,96738.78
2023-03-05T16:56:10.593Z,96743.41
2023-03-05T16:58:38.487Z,96745.50
2023-03-05T17:01:09.095Z,96743.00
2023-03-05T17:03:36.456Z,96741.06
2023-03-05T17:06:10.848Z,96733.22
2023-03-05T17:08:39.473Z,96734.25
2023-03-05T17:11:08.583Z,96741.41
2023-03-05T17:13:35.876Z,96740.13
2023-03-05T17:16:03.237Z,96737.09
2023-03-05T17:18:30.405Z,96739.19
2023-03-05T17:20:57.607Z,96743.69
2023-03-05T17:23:24.902Z,96737.38
2023-03-05T17:25:53.691Z,96743.94
2023-03-05T17:28:20.988Z,96742.44
2023-03-05T17:30:48.339Z,96743.94
2023-03-05T17:33:15.642Z,96736.38
2023-03-05T17:35:43.656Z,96740.94
2023-03-05T17:38:10.936Z,96738.19
2023-03-05T17:40:38.113Z,96746.31
2023-03-05T17:43:06.737Z,96743.78
2023-03-05T17:45:34.126Z,96747.63
2023-03-05T17:48:01.454Z,96738.47
2023-03-05T17:50:28.672Z,96748.00
2023-03-05T17:52:55.926Z,96747.88
2023-03-05T17:55:23.175Z,96752.00
2023-03-05T17:57:50.457Z,96750.22
2023-03-05T18:00:20.951Z,96753.06
2023-03-05T18:02:48.262Z,96754.47
2023-03-05T18:05:15.798Z,96760.13
2023-03-05T18:07:45.824Z,96755.44
2023-03-05T18:10:13.214Z,96762.91
2023-03-05T18:12:40.674Z,96761.19
2023-03-05T18:15:09.990Z,96757.56
2023-03-05T18:17:38.612Z,96764.22
2023-03-05T18:20:07.006Z,96762.38
2023-03-05T18:22:34.331Z,96753.28
2023-03-05T18:25:01.595Z,96751.38
2023-03-05T18:27:28.872Z,96744.97
2023-03-05T18:29:56.236Z,96748.38
2023-03-05T18:32:23.519Z,96751.31
2023-03-05T18:34:52.314Z,96741.91
2023-03-05T18:37:20.633Z,96750.88
2023-03-05T18:39:47.935Z,96746.03
2023-03-05T18:42:15.100Z,96745.63
2023-03-05T18:44:42.416Z,96740.28
2023-03-05T18:47:09.499Z,96747.06
2023-03-05T18:49:36.745Z,96748.53
2023-03-05T18:52:05.713Z,96742.69
2023-03-05T18:54:32.962Z,96739.19
2023-03-05T18:57:00.233Z,96739.44
2023-03-05T18:59:27.535Z,96737.59
2023-03-05T19:01:54.696Z,96737.84
2023-03-05T19:04:21.938Z,96738.66
2023-03-05T19:06:49.129Z,96737.56
2023-03-05T19:09:17.931Z,96735.88
2023-03-05T19:11:45.231Z,96734.22
2023-03-05T19:14:12.703Z,96733.47
2023-03-05T19:16:40.133Z,96737.47
2023-03-05T19:19:07.413Z,96729.16
2023-03-05T19:21:34.693Z,96733.88
2023-03-05T19:24:01.891Z,96728.09
2023-03-05T19:26:30.551Z,96724.94
2023-03-05T19:28:57.792Z,96728.13
2023-03-05T19:31:25.199Z,96720.50
2023-03-05T19:33:52.484Z,96726.97
2023-03-05T19:36:19.730Z,96718.88
2023-03-05T19:38:48.604Z,96719.94
2023-03-05T19:41:16.667Z,96718.34
2023-03-05T19:43:45.319Z,96721.88
2023-03-05T19:46:12.543Z,96720.03
2023-03-05T19:48:39.877Z,96720.84
2023-03-05T19:51:09.147Z,96721.69
2023-03-05T19:53:36.217Z,96726.38
2023-03-05T19:56:03.520Z,96719.50
2023-03-05T19:58:30.760Z,96724.66
2023-03-05T20:01:07.760Z,96723.84
2023-03-05T20:03:35.144Z,96724.22
2023-03-05T20:06:02.426Z,96721.22
2023-03-05T20:08:29.634Z,96726.78
2023-03-05T20:10:56.960Z,96725.50
2023-03-05T20:13:24.757Z,96721.09
